Time,TemperatureF,DewpointF,PressureIn,WindDirection,WindDirectionDegrees,WindSpeedMPH,WindSpeedGustMPH,Humidity,HourlyPrecipIn,Conditions,Clouds,dailyrainin,SolarRadiationWatts/m^2,SoftwareType,DateUTC
2013-03-03 00:01:00,41.0,40.0,-100.00,NNW,345,1.0,3.0,97,-99.99,,,0.00,0.000000,,2013-03-03 07:01:00,
2013-03-03 00:11:00,41.0,40.0,-100.00,NNW,345,1.0,3.0,97,-99.99,,,0.00,0.000000,,2013-03-03 07:11:00,
2013-03-03 00:42:00,40.0,40.0,-100.00,WNW,293,1.0,3.0,100,-99.99,,,0.00,0.000000,,2013-03-03 07:42:00,
2013-03-03 00:52:00,40.0,40.0,-100.00,WNW,293,1.0,3.0,100,-99.99,,,0.00,0.000000,,2013-03-03 07:52:00,
2013-03-03 01:01:00,40.0,40.0,-100.00,WNW,293,1.0,3.0,100,-99.99,,,0.00,0.000000,,2013-03-03 08:01:00,
2013-03-03 01:11:00,40.0,40.0,-100.00,WNW,293,1.0,3.0,100,-99.99,,,0.00,0.000000,,2013-03-03 08:11:00,
2013-03-03 01:41:00,40.0,40.0,-100.00,West,279,2.0,5.0,100,-99.99,,,0.00,0.000000,,2013-03-03 08:41:00,
2013-03-03 01:54:00,40.0,40.0,-100.00,West,279,2.0,5.0,100,-99.99,,,0.00,0.000000,,2013-03-03 08:54:00,
2013-03-03 02:01:00,40.0,40.0,-100.00,West,279,2.0,5.0,100,-99.99,,,0.00,0.000000,,2013-03-03 09:01:00,
2013-03-03 02:11:00,40.0,40.0,-100.00,West,279,2.0,5.0,100,-99.99,,,0.00,0.000000,,2013-03-03 09:11:00,
2013-03-03 02:41:00,41.0,41.0,-100.00,SE,137,4.0,7.0,100,-99.99,,,0.00,0.000000,,2013-03-03 09:41:00,
2013-03-03 02:52:00,41.0,41.0,-100.00,SE,137,4.0,7.0,100,-99.99,,,0.00,0.000000,,2013-03-03 09:52:00,
2013-03-03 03:01:00,41.0,41.0,-100.00,SE,137,4.0,7.0,100,-99.99,,,0.00,0.000000,,2013-03-03 10:01:00,
2013-03-03 03:11:00,41.0,41.0,-100.00,SE,137,4.0,7.0,100,-99.99,,,0.00,0.000000,,2013-03-03 10:11:00,
2013-03-03 03:42:00,40.0,40.0,-100.00,South,191,1.0,5.0,100,-99.99,,,0.00,0.000000,,2013-03-03 10:42:00,
2013-03-03 03:52:00,40.0,40.0,-100.00,South,191,1.0,5.0,100,-99.99,,,0.00,0.000000,,2013-03-03 10:52:00,
2013-03-03 04:01:00,40.0,40.0,-100.00,South,191,1.0,5.0,100,-99.99,,,0.00,0.000000,,2013-03-03 11:01:00,
2013-03-03 04:11:00,40.0,40.0,-100.00,South,191,1.0,5.0,100,-99.99,,,0.00,0.000000,,2013-03-03 11:11:00,
2013-03-03 04:42:00,40.0,40.0,-100.00,SE,144,3.0,4.0,100,-99.99,,,0.00,0.120000,,2013-03-03 11:42:00,
2013-03-03 04:52:00,40.0,40.0,-100.00,SE,144,3.0,4.0,100,-99.99,,,0.00,0.120000,,2013-03-03 11:52:00,
2013-03-03 05:01:00,40.0,40.0,-100.00,SE,144,3.0,4.0,100,-99.99,,,0.00,0.120000,,2013-03-03 12:01:00,
2013-03-03 05:11:00,40.0,40.0,-100.00,SE,144,3.0,4.0,100,-99.99,,,0.00,0.120000,,2013-03-03 12:11:00,
2013-03-03 05:42:00,39.0,39.0,-100.00,SSE,152,3.0,7.0,100,-99.99,,,0.00,0.120000,,2013-03-03 12:42:00,
2013-03-03 05:53:00,39.0,39.0,-100.00,SSE,152,3.0,7.0,100,-99.99,,,0.00,0.120000,,2013-03-03 12:53:00,
2013-03-03 06:01:00,39.0,39.0,-100.00,SSE,152,3.0,7.0,100,-99.99,,,0.00,0.120000,,2013-03-03 13:01:00,
2013-03-03 06:11:00,39.0,39.0,-100.00,SSE,152,3.0,7.0,100,-99.99,,,0.00,0.120000,,2013-03-03 13:11:00,
2013-03-03 06:42:00,39.0,38.0,-100.00,SE,139,6.0,10.0,95,-99.99,,,0.00,0.120000,,2013-03-03 13:42:00,
2013-03-03 06:52:00,39.0,38.0,-100.00,SE,139,6.0,10.0,95,-99.99,,,0.00,0.120000,,2013-03-03 13:52:00,
2013-03-03 07:01:00,39.0,38.0,-100.00,SE,139,6.0,10.0,95,-99.99,,,0.00,0.120000,,2013-03-03 14:01:00,
2013-03-03 07:11:00,39.0,38.0,-100.00,SE,139,6.0,10.0,95,-99.99,,,0.00,0.120000,,2013-03-03 14:11:00,
2013-03-03 07:42:00,39.0,36.0,-100.00,WNW,288,10.0,20.0,90,-99.99,,,0.00,1.280000,,2013-03-03 14:42:00,
2013-03-03 07:52:00,39.0,36.0,-100.00,WNW,288,10.0,20.0,90,-99.99,,,0.00,1.280000,,2013-03-03 14:52:00,
2013-03-03 08:01:00,39.0,36.0,-100.00,WNW,288,10.0,20.0,90,-99.99,,,0.00,1.280000,,2013-03-03 15:01:00,
2013-03-03 08:11:00,39.0,36.0,-100.00,WNW,288,10.0,20.0,90,-99.99,,,0.00,1.280000,,2013-03-03 15:11:00,
2013-03-03 08:32:00,36.0,27.0,-100.00,NW,315,2.0,6.0,69,-99.99,,,0.00,24.410000,,2013-03-03 15:32:00,
2013-03-03 08:42:00,36.0,27.0,-100.00,NW,315,2.0,6.0,69,-99.99,,,0.00,24.410000,,2013-03-03 15:42:00,
2013-03-03 08:52:00,36.0,27.0,-100.00,NW,315,2.0,6.0,69,-99.99,,,0.00,24.410000,,2013-03-03 15:52:00,
2013-03-03 09:01:00,36.0,27.0,-100.00,NW,315,2.0,6.0,69,-99.99,,,0.00,24.410000,,2013-03-03 16:01:00,
2013-03-03 09:12:00,36.0,27.0,-100.00,NW,315,2.0,6.0,69,-99.99,,,0.00,24.410000,,2013-03-03 16:12:00,
2013-03-03 09:42:00,34.0,24.0,-100.00,NW,310,6.0,19.0,64,-99.99,,,0.00,27.889999,,2013-03-03 16:42:00,
2013-03-03 09:52:00,34.0,24.0,-100.00,NW,310,6.0,19.0,64,-99.99,,,0.00,27.889999,,2013-03-03 16:52:00,
2013-03-03 10:01:00,34.0,24.0,-100.00,NW,310,6.0,19.0,64,-99.99,,,0.00,27.889999,,2013-03-03 17:01:00,
2013-03-03 10:11:00,34.0,24.0,-100.00,NW,310,6.0,19.0,64,-99.99,,,0.00,27.889999,,2013-03-03 17:11:00,
2013-03-03 10:42:00,32.0,21.0,-100.00,NW,325,5.0,15.0,63,-99.99,,,0.00,70.080002,,2013-03-03 17:42:00,
2013-03-03 10:52:00,32.0,21.0,-100.00,NW,325,5.0,15.0,63,-99.99,,,0.00,70.080002,,2013-03-03 17:52:00,
2013-03-03 11:01:00,32.0,21.0,-100.00,NW,325,5.0,15.0,63,-99.99,,,0.00,70.080002,,2013-03-03 18:01:00,
2013-03-03 11:11:00,32.0,21.0,-100.00,NW,325,5.0,15.0,63,-99.99,,,0.00,70.080002,,2013-03-03 18:11:00,
2013-03-03 11:31:00,33.0,15.0,-100.00,WNW,300,12.0,29.0,45,-99.99,,,0.00,141.089996,,2013-03-03 18:31:00,
2013-03-03 11:42:00,33.0,15.0,-100.00,WNW,300,12.0,29.0,45,-99.99,,,0.00,141.089996,,2013-03-03 18:42:00,
2013-03-03 11:52:00,33.0,15.0,-100.00,WNW,300,12.0,29.0,45,-99.99,,,0.00,141.089996,,2013-03-03 18:52:00,
2013-03-03 12:01:00,33.0,15.0,-100.00,WNW,300,12.0,29.0,45,-99.99,,,0.00,141.089996,,2013-03-03 19:01:00,
2013-03-03 12:11:00,33.0,15.0,-100.00,WNW,300,12.0,29.0,45,-99.99,,,0.00,141.089996,,2013-03-03 19:11:00,
2013-03-03 12:42:00,36.0,12.0,-100.00,WSW,244,7.0,19.0,36,-99.99,,,0.00,644.669983,,2013-03-03 19:42:00,
2013-03-03 12:52:00,36.0,12.0,-100.00,WSW,244,7.0,19.0,36,-99.99,,,0.00,644.669983,,2013-03-03 19:52:00,
2013-03-03 13:01:00,36.0,12.0,-100.00,WSW,244,7.0,19.0,36,-99.99,,,0.00,644.669983,,2013-03-03 20:01:00,
2013-03-03 13:11:00,36.0,12.0,-100.00,WSW,244,7.0,19.0,36,-99.99,,,0.00,644.669983,,2013-03-03 20:11:00,
2013-03-03 13:42:00,37.0,13.0,-100.00,WSW,258,13.0,30.0,36,-99.99,,,0.00,626.539978,,2013-03-03 20:42:00,
2013-03-03 13:52:00,37.0,13.0,-100.00,WSW,258,13.0,30.0,36,-99.99,,,0.00,626.539978,,2013-03-03 20:52:00,
2013-03-03 14:01:00,37.0,13.0,-100.00,WSW,258,13.0,30.0,36,-99.99,,,0.00,626.539978,,2013-03-03 21:01:00,
2013-03-03 14:11:00,37.0,13.0,-100.00,WSW,258,13.0,30.0,36,-99.99,,,0.00,626.539978,,2013-03-03 21:11:00,
2013-03-03 14:41:00,36.0,12.0,-100.00,West,260,8.0,25.0,36,-99.99,,,0.00,321.350006,,2013-03-03 21:41:00,
2013-03-03 14:52:00,36.0,12.0,-100.00,West,260,8.0,25.0,36,-99.99,,,0.00,321.350006,,2013-03-03 21:52:00,
2013-03-03 15:01:00,36.0,12.0,-100.00,West,260,8.0,25.0,36,-99.99,,,0.00,321.350006,,2013-03-03 22:01:00,
2013-03-03 15:11:00,36.0,12.0,-100.00,West,260,8.0,25.0,36,-99.99,,,0.00,321.350006,,2013-03-03 22:11:00,
2013-03-03 15:32:00,36.0,12.0,-100.00,WSW,241,7.0,16.0,35,-99.99,,,0.00,141.320007,,2013-03-03 22:32:00,
2013-03-03 15:42:00,36.0,12.0,-100.00,WSW,241,7.0,16.0,35,-99.99,,,0.00,141.320007,,2013-03-03 22:42:00,
2013-03-03 15:52:00,36.0,12.0,-100.00,WSW,241,7.0,16.0,35,-99.99,,,0.00,141.320007,,2013-03-03 22:52:00,
2013-03-03 16:01:00,36.0,12.0,-100.00,WSW,241,7.0,16.0,35,-99.99,,,0.00,141.320007,,2013-03-03 23:01:00,
2013-03-03 16:11:00,36.0,12.0,-100.00,WSW,241,7.0,16.0,35,-99.99,,,0.00,141.320007,,2013-03-03 23:11:00,